Time,TemperatureF,DewpointF,PressureIn,WindDirection,WindDirectionDegrees,WindSpeedMPH,WindSpeedGustMPH,Humidity,HourlyPrecipIn,Conditions,Clouds,dailyrainin,SoftwareType,DateUTC
2013-02-21 00:02:00,42.0,40.4,29.70,ESE,120,5.0,5.0,94,0.00,,,0.00,Wunderground v.1.15,2013-02-21 06:02:00,
2013-02-21 00:08:00,42.1,40.8,29.70,ESE,112,4.0,5.0,95,0.00,,,0.00,Wunderground v.1.15,2013-02-21 06:08:00,
2013-02-21 00:14:00,42.2,40.9,29.72,SE,134,3.0,3.0,95,0.00,,,0.00,Wunderground v.1.15,2013-02-21 06:14:00,
2013-02-21 00:20:00,42.2,40.9,29.73,East,100,1.0,2.0,95,0.00,,,0.00,Wunderground v.1.15,2013-02-21 06:20:00,
2013-02-21 00:26:00,42.3,41.0,29.73,East,96,1.0,2.0,95,0.00,,,0.00,Wunderground v.1.15,2013-02-21 06:26:00,
2013-02-21 00:32:00,42.4,41.1,29.73,East,82,2.0,3.0,95,0.00,,,0.01,Wunderground v.1.15,2013-02-21 06:32:00,
2013-02-21 00:38:00,42.4,41.1,29.73,SE,129,3.0,5.0,95,0.00,,,0.01,Wunderground v.1.15,2013-02-21 06:38:00,
2013-02-21 00:44:00,42.5,41.4,29.72,SE,136,3.0,8.0,96,0.00,,,0.01,Wunderground v.1.15,2013-02-21 06:44:00,
2013-02-21 00:50:00,42.6,41.5,29.71,East,91,3.0,3.0,96,0.04,,,0.02,Wunderground v.1.15,2013-02-21 06:50:00,
2013-02-21 00:56:00,42.6,41.5,29.70,East,93,3.0,4.0,96,0.04,,,0.02,Wunderground v.1.15,2013-02-21 06:56:00,
2013-02-21 01:02:00,42.6,41.5,29.70,East,100,3.0,14.0,96,0.05,,,0.03,Wunderground v.1.15,2013-02-21 07:02:00,
2013-02-21 01:08:00,42.4,41.3,29.70,East,81,4.0,14.0,96,0.05,,,0.03,Wunderground v.1.15,2013-02-21 07:08:00,
2013-02-21 01:14:00,42.2,41.1,29.68,East,96,5.0,14.0,96,0.04,,,0.03,Wunderground v.1.15,2013-02-21 07:14:00,
2013-02-21 01:20:00,42.1,41.0,29.68,ESE,121,5.0,5.0,96,0.00,,,0.03,Wunderground v.1.15,2013-02-21 07:20:00,
2013-02-21 01:26:00,42.0,40.9,29.67,East,96,5.0,14.0,96,0.00,,,0.03,Wunderground v.1.15,2013-02-21 07:26:00,
2013-02-21 01:32:00,42.0,40.9,29.67,ESE,115,5.0,14.0,96,0.00,,,0.03,Wunderground v.1.15,2013-02-21 07:32:00,
2013-02-21 01:38:00,42.0,40.9,29.67,East,81,5.0,14.0,96,0.00,,,0.03,Wunderground v.1.15,2013-02-21 07:38:00,
2013-02-21 01:44:00,42.0,40.9,29.67,ESE,113,5.0,14.0,96,0.00,,,0.03,Wunderground v.1.15,2013-02-21 07:44:00,
2013-02-21 01:50:00,42.1,41.0,29.67,ENE,69,5.0,5.0,96,0.00,,,0.03,Wunderground v.1.15,2013-02-21 07:50:00,
2013-02-21 01:56:00,42.1,41.0,29.67,East,86,6.0,14.0,96,0.00,,,0.03,Wunderground v.1.15,2013-02-21 07:56:00,
2013-02-21 02:02:00,42.1,41.0,29.67,ESE,115,4.0,6.0,96,0.00,,,0.03,Wunderground v.1.15,2013-02-21 08:02:00,
2013-02-21 02:08:00,42.1,41.0,29.67,East,87,4.0,14.0,96,0.00,,,0.03,Wunderground v.1.15,2013-02-21 08:08:00,
2013-02-21 02:14:00,42.0,40.9,29.66,ESE,110,5.0,14.0,96,0.00,,,0.03,Wunderground v.1.15,2013-02-21 08:14:00,
2013-02-21 02:20:00,42.0,41.2,29.66,ENE,77,4.0,14.0,97,0.00,,,0.03,Wunderground v.1.15,2013-02-21 08:20:00,
2013-02-21 02:26:00,42.0,41.2,29.64,ESE,118,5.0,14.0,97,0.00,,,0.03,Wunderground v.1.15,2013-02-21 08:26:00,
2013-02-21 02:32:00,42.0,41.2,29.64,East,93,6.0,14.0,97,0.00,,,0.03,Wunderground v.1.15,2013-02-21 08:32:00,
2013-02-21 02:38:00,42.1,41.3,29.63,East,86,6.0,14.0,97,0.00,,,0.03,Wunderground v.1.15,2013-02-21 08:38:00,
2013-02-21 02:44:00,42.3,41.5,29.63,SSE,148,6.0,14.0,97,0.00,,,0.03,Wunderground v.1.15,2013-02-21 08:44:00,
2013-02-21 02:50:00,42.4,41.6,29.63,ENE,70,5.0,14.0,97,0.00,,,0.03,Wunderground v.1.15,2013-02-21 08:50:00,
2013-02-21 02:56:00,42.2,41.4,29.61,East,94,6.0,14.0,97,0.00,,,0.03,Wunderground v.1.15,2013-02-21 08:56:00,
2013-02-21 03:02:00,42.3,41.5,29.60,ESE,109,6.0,14.0,97,0.00,,,0.03,Wunderground v.1.15,2013-02-21 09:02:00,
2013-02-21 03:08:00,42.4,41.6,29.60,East,100,6.0,14.0,97,0.00,,,0.03,Wunderground v.1.15,2013-02-21 09:08:00,
2013-02-21 03:14:00,42.4,41.6,29.60,ESE,108,6.0,14.0,97,0.00,,,0.03,Wunderground v.1.15,2013-02-21 09:14:00,
2013-02-21 03:20:00,42.6,41.8,29.60,SE,134,6.0,6.0,97,0.00,,,0.03,Wunderground v.1.15,2013-02-21 09:20:00,
2013-02-21 03:26:00,42.7,41.9,29.60,ESE,109,5.0,14.0,97,0.00,,,0.03,Wunderground v.1.15,2013-02-21 09:26:00,
2013-02-21 03:32:00,42.9,42.1,29.60,East,100,4.0,14.0,97,0.00,,,0.03,Wunderground v.1.15,2013-02-21 09:32:00,
2013-02-21 03:38:00,43.2,42.4,29.60,ESE,102,4.0,14.0,97,0.00,,,0.03,Wunderground v.1.15,2013-02-21 09:38:00,
2013-02-21 03:44:00,43.4,42.6,29.60,ENE,71,4.0,14.0,97,0.00,,,0.03,Wunderground v.1.15,2013-02-21 09:44:00,
2013-02-21 03:50:00,43.5,42.7,29.61,NNE,25,3.0,3.0,97,0.00,,,0.03,Wunderground v.1.15,2013-02-21 09:50:00,
2013-02-21 03:56:00,43.6,42.8,29.62,East,83,2.0,14.0,97,0.00,,,0.03,Wunderground v.1.15,2013-02-21 09:56:00,
2013-02-21 04:02:00,43.7,42.9,29.61,ENE,67,2.0,14.0,97,0.00,,,0.03,Wunderground v.1.15,2013-02-21 10:02:00,
2013-02-21 04:08:00,43.6,42.8,29.60,ESE,108,4.0,14.0,97,0.00,,,0.03,Wunderground v.1.15,2013-02-21 10:08:00,
2013-02-21 04:14:00,43.6,42.8,29.60,SE,127,5.0,14.0,97,0.00,,,0.03,Wunderground v.1.15,2013-02-21 10:14:00,
2013-02-21 04:20:00,43.6,42.8,29.59,ESE,104,5.0,14.0,97,0.00,,,0.03,Wunderground v.1.15,2013-02-21 10:20:00,
2013-02-21 04:26:00,43.6,42.8,29.59,SSE,151,6.0,14.0,97,0.00,,,0.03,Wunderground v.1.15,2013-02-21 10:26:00,
2013-02-21 04:32:00,43.7,42.9,29.60,ESE,105,4.0,14.0,97,0.00,,,0.03,Wunderground v.1.15,2013-02-21 10:32:00,
2013-02-21 04:38:00,43.9,43.1,29.59,ESE,114,3.0,14.0,97,0.00,,,0.03,Wunderground v.1.15,2013-02-21 10:38:00,
2013-02-21 04:44:00,44.0,43.2,29.59,ESE,110,4.0,14.0,97,0.00,,,0.03,Wunderground v.1.15,2013-02-21 10:44:00,
2013-02-21 04:50:00,44.3,43.8,29.57,East,91,4.0,14.0,98,0.00,,,0.03,Wunderground v.1.15,2013-02-21 10:50:00,
2013-02-21 04:56:00,44.5,44.0,29.57,East,92,4.0,14.0,98,0.00,,,0.04,Wunderground v.1.15,2013-02-21 10:56:00,
2013-02-21 05:02:00,44.9,44.4,29.57,ESE,112,5.0,14.0,98,0.00,,,0.04,Wunderground v.1.15,2013-02-21 11:02:00,
2013-02-21 05:08:00,45.3,44.8,29.54,East,82,6.0,14.0,98,0.00,,,0.04,Wunderground v.1.15,2013-02-21 11:08:00,
2013-02-21 05:14:00,45.9,45.4,29.57,East,90,5.0,14.0,98,0.00,,,0.04,Wunderground v.1.15,2013-02-21 11:14:00,
2013-02-21 05:20:00,46.4,45.9,29.57,SE,139,4.0,4.0,98,0.00,,,0.04,Wunderground v.1.15,2013-02-21 11:20:00,
2013-02-21 05:26:00,46.7,46.2,29.57,ESE,122,3.0,14.0,98,0.00,,,0.04,Wunderground v.1.15,2013-02-21 11:26:00,
2013-02-21 05:32:00,47.0,46.5,29.58,SSW,193,3.0,14.0,98,0.00,,,0.04,Wunderground v.1.15,2013-02-21 11:32:00,
2013-02-21 05:38:00,47.2,46.7,29.58,SSE,166,2.0,14.0,98,0.00,,,0.04,Wunderground v.1.15,2013-02-21 11:38:00,
2013-02-21 05:44:00,47.6,47.1,29.58,South,169,2.0,14.0,98,0.00,,,0.04,Wunderground v.1.15,2013-02-21 11:44:00,
2013-02-21 05:50:00,47.9,47.4,29.58,SSW,198,3.0,14.0,98,0.00,,,0.04,Wunderground v.1.15,2013-02-21 11:50:00,
2013-02-21 05:56:00,48.1,47.6,29.60,WNW,303,4.0,14.0,98,0.00,,,0.04,Wunderground v.1.15,2013-02-21 11:56:00,
2013-02-21 06:02:00,47.7,47.2,29.67,NW,305,8.0,8.0,98,1.50,,,0.15,Wunderground v.1.15,2013-02-21 12:02:00,
2013-02-21 06:08:00,47.6,47.1,29.66,WNW,302,10.0,10.0,98,0.21,,,0.17,Wunderground v.1.15,2013-02-21 12:08:00,
2013-02-21 06:14:00,47.5,47.0,29.66,WNW,295,7.0,9.0,98,0.07,,,0.17,Wunderground v.1.15,2013-02-21 12:14:00,
2013-02-21 06:20:00,47.7,47.2,29.65,NW,304,6.0,6.0,98,0.04,,,0.17,Wunderground v.1.15,2013-02-21 12:20:00,
2013-02-21 06:26:00,47.9,47.4,29.65,WNW,297,4.0,6.0,98,0.00,,,0.17,Wunderground v.1.15,2013-02-21 12:26:00,
2013-02-21 06:32:00,48.0,47.5,29.66,WNW,290,3.0,3.0,98,0.00,,,0.17,Wunderground v.1.15,2013-02-21 12:32:00,
2013-02-21 06:38:00,48.2,47.7,29.66,West,276,3.0,4.0,98,0.00,,,0.17,Wunderground v.1.15,2013-02-21 12:38:00,
2013-02-21 06:44:00,48.3,47.8,29.67,WNW,282,4.0,4.0,98,0.00,,,0.17,Wunderground v.1.15,2013-02-21 12:44:00,
2013-02-21 06:50:00,48.5,48.0,29.67,WNW,294,6.0,10.0,98,0.00,,,0.17,Wunderground v.1.15,2013-02-21 12:50:00,
2013-02-21 06:56:00,48.5,48.0,29.67,WNW,286,6.0,10.0,98,0.00,,,0.17,Wunderground v.1.15,2013-02-21 12:56:00,
2013-02-21 07:02:00,48.3,47.5,29.68,NW,312,7.0,14.0,97,0.00,,,0.17,Wunderground v.1.15,2013-02-21 13:02:00,
2013-02-21 07:08:00,48.1,47.3,29.67,West,277,6.0,14.0,97,0.00,,,0.17,Wunderground v.1.15,2013-02-21 13:08:00,
2013-02-21 07:14:00,47.9,47.1,29.68,WNW,285,6.0,14.0,97,0.00,,,0.17,Wunderground v.1.15,2013-02-21 13:14:00,
2013-02-21 07:20:00,47.5,46.7,29.68,WNW,301,7.0,7.0,97,0.00,,,0.17,Wunderground v.1.15,2013-02-21 13:20:00,
2013-02-21 07:26:00,46.6,45.5,29.69,WNW,302,7.0,14.0,96,0.00,,,0.17,Wunderground v.1.15,2013-02-21 13:26:00,
2013-02-21 07:32:00,45.9,44.8,29.68,NW,307,6.0,14.0,96,0.00,,,0.17,Wunderground v.1.15,2013-02-21 13:32:00,
2013-02-21 07:38:00,45.3,44.2,29.67,NW,316,4.0,14.0,96,0.00,,,0.17,Wunderground v.1.15,2013-02-21 13:38:00,
2013-02-21 07:44:00,45.0,43.9,29.69,WNW,294,4.0,14.0,96,0.00,,,0.17,Wunderground v.1.15,2013-02-21 13:44:00,
2013-02-21 07:50:00,44.9,44.1,29.69,WNW,303,4.0,4.0,97,0.00,,,0.17,Wunderground v.1.15,2013-02-21 13:50:00,
2013-02-21 07:56:00,44.8,44.0,29.69,NW,311,3.0,14.0,97,0.00,,,0.17,Wunderground v.1.15,2013-02-21 13:56:00,
2013-02-21 08:02:00,44.7,43.9,29.70,WNW,301,3.0,14.0,97,0.00,,,0.17,Wunderground v.1.15,2013-02-21 14:02:00,
2013-02-21 08:08:00,44.7,43.9,29.70,NW,304,3.0,14.0,97,0.00,,,0.17,Wunderground v.1.15,2013-02-21 14:08:00,
2013-02-21 08:14:00,44.5,43.7,29.71,WNW,297,4.0,14.0,97,0.00,,,0.17,Wunderground v.1.15,2013-02-21 14:14:00,
2013-02-21 08:20:00,44.5,43.7,29.72,West,278,4.0,14.0,97,0.00,,,0.17,Wunderground v.1.15,2013-02-21 14:20:00,
2013-02-21 08:26:00,44.3,43.5,29.72,WNW,293,5.0,14.0,97,0.00,,,0.17,Wunderground v.1.15,2013-02-21 14:26:00,
2013-02-21 08:32:00,44.0,42.9,29.73,West,276,7.0,14.0,96,0.00,,,0.17,Wunderground v.1.15,2013-02-21 14:32:00,
2013-02-21 08:38:00,43.6,42.5,29.73,WNW,303,8.0,14.0,96,0.00,,,0.17,Wunderground v.1.15,2013-02-21 14:38:00,
2013-02-21 08:44:00,43.4,42.3,29.73,WNW,295,8.0,14.0,96,0.00,,,0.17,Wunderground v.1.15,2013-02-21 14:44:00,
2013-02-21 08:50:00,43.5,42.7,29.74,West,278,7.0,7.0,97,0.00,,,0.17,Wunderground v.1.15,2013-02-21 14:50:00,
2013-02-21 08:56:00,43.6,42.8,29.74,WNW,299,6.0,14.0,97,0.00,,,0.17,Wunderground v.1.15,2013-02-21 14:56:00,
2013-02-21 09:02:00,43.7,42.9,29.74,WNW,295,6.0,14.0,97,0.00,,,0.17,Wunderground v.1.15,2013-02-21 15:02:00,
2013-02-21 09:08:00,44.0,43.2,29.73,WNW,302,5.0,14.0,97,0.00,,,0.17,Wunderground v.1.15,2013-02-21 15:08:00,
2013-02-21 09:14:00,44.6,43.8,29.73,WNW,290,5.0,14.0,97,0.00,,,0.17,Wunderground v.1.15,2013-02-21 15:14:00,
2013-02-21 09:20:00,45.0,43.9,29.74,WNW,292,5.0,14.0,96,0.00,,,0.17,Wunderground v.1.15,2013-02-21 15:20:00,
2013-02-21 09:26:00,45.7,44.6,29.73,West,281,5.0,14.0,96,0.00,,,0.17,Wunderground v.1.15,2013-02-21 15:26:00,
2013-02-21 09:32:00,46.6,45.2,29.73,WNW,290,5.0,8.0,95,0.00,,,0.17,Wunderground v.1.15,2013-02-21 15:32:00,
2013-02-21 09:38:00,47.3,44.8,29.74,WNW,288,6.0,14.0,91,0.00,,,0.17,Wunderground v.1.15,2013-02-21 15:38:00,
2013-02-21 09:44:00,47.5,43.8,29.74,WNW,286,7.0,14.0,87,0.00,,,0.17,Wunderground v.1.15,2013-02-21 15:44:00,
2013-02-21 09:50:00,47.8,43.8,29.74,WNW,291,8.0,14.0,86,0.00,,,0.17,Wunderground v.1.15,2013-02-21 15:50:00,
2013-02-21 09:56:00,48.4,43.8,29.74,West,260,8.0,14.0,84,0.00,,,0.17,Wunderground v.1.15,2013-02-21 15:56:00,
2013-02-21 10:02:00,48.8,43.2,29.74,West,273,8.0,14.0,81,0.00,,,0.17,Wunderground v.1.15,2013-02-21 16:02:00,
2013-02-21 10:08:00,49.1,43.5,29.74,WNW,291,8.0,14.0,81,0.00,,,0.17,Wunderground v.1.15,2013-02-21 16:08:00,
2013-02-21 10:14:00,49.8,43.2,29.74,WSW,238,8.0,14.0,78,0.00,,,0.17,Wunderground v.1.15,2013-02-21 16:14:00,
2013-02-21 10:20:00,50.3,43.0,29.74,West,271,8.0,14.0,76,0.00,,,0.17,Wunderground v.1.15,2013-02-21 16:20:00,
2013-02-21 10:26:00,51.1,42.7,29.73,WSW,253,9.0,14.0,73,0.00,,,0.17,Wunderground v.1.15,2013-02-21 16:26:00,
2013-02-21 10:32:00,52.1,42.2,29.73,West,271,10.0,12.0,69,0.00,,,0.17,Wunderground v.1.15,2013-02-21 16:32:00,
2013-02-21 10:38:00,52.7,40.0,29.73,WNW,284,10.0,14.0,62,0.00,,,0.17,Wunderground v.1.15,2013-02-21 16:38:00,
2013-02-21 10:44:00,53.6,39.6,29.73,West,274,10.0,14.0,59,0.00,,,0.17,Wunderground v.1.15,2013-02-21 16:44:00,
2013-02-21 10:50:00,54.1,37.8,29.73,West,277,11.0,14.0,54,0.00,,,0.17,Wunderground v.1.15,2013-02-21 16:50:00,
2013-02-21 10:56:00,54.8,38.9,29.74,WNW,283,11.0,14.0,55,0.00,,,0.17,Wunderground v.1.15,2013-02-21 16:56:00,
2013-02-21 11:02:00,55.2,36.9,29.73,West,266,11.0,14.0,50,0.00,,,0.17,Wunderground v.1.15,2013-02-21 17:02:00,
2013-02-21 11:08:00,56.0,37.6,29.74,West,274,11.0,18.0,50,0.00,,,0.17,Wunderground v.1.15,2013-02-21 17:08:00,
2013-02-21 11:14:00,56.3,34.6,29.74,West,270,12.0,17.0,44,0.00,,,0.17,Wunderground v.1.15,2013-02-21 17:14:00,
2013-02-21 11:20:00,56.7,33.2,29.74,WNW,288,14.0,16.0,41,0.00,,,0.17,Wunderground v.1.15,2013-02-21 17:20:00,
2013-02-21 11:26:00,57.0,32.3,29.74,West,266,14.0,18.0,39,0.00,,,0.17,Wunderground v.1.15,2013-02-21 17:26:00,
2013-02-21 11:32:00,57.4,31.3,29.74,WSW,256,13.0,18.0,37,0.00,,,0.17,Wunderground v.1.15,2013-02-21 17:32:00,
2013-02-21 11:38:00,57.4,30.6,29.73,WNW,283,14.0,18.0,36,0.00,,,0.17,Wunderground v.1.15,2013-02-21 17:38:00,
2013-02-21 11:44:00,57.9,33.1,29.73,West,270,14.0,15.0,39,0.00,,,0.17,Wunderground v.1.15,2013-02-21 17:44:00,
2013-02-21 11:50:00,58.3,32.1,29.73,WNW,284,13.0,13.0,37,0.00,,,0.17,Wunderground v.1.15,2013-02-21 17:50:00,
2013-02-21 11:56:00,58.4,32.2,29.73,WNW,285,13.0,17.0,37,0.00,,,0.17,Wunderground v.1.15,2013-02-21 17:56:00,
2013-02-21 12:02:00,58.7,30.4,29.73,WNW,288,13.0,14.0,34,0.00,,,0.17,Wunderground v.1.15,2013-02-21 18:02:00,
2013-02-21 12:08:00,58.7,30.4,29.73,WNW,297,13.0,14.0,34,0.00,,,0.17,Wunderground v.1.15,2013-02-21 18:08:00,
2013-02-21 12:14:00,59.0,30.6,29.73,West,280,13.0,16.0,34,0.00,,,0.17,Wunderground v.1.15,2013-02-21 18:14:00,
2013-02-21 12:20:00,59.2,30.8,29.72,SW,232,11.0,11.0,34,0.00,,,0.17,Wunderground v.1.15,2013-02-21 18:20:00,
2013-02-21 12:26:00,59.2,30.1,29.72,WNW,295,12.0,14.0,33,0.00,,,0.17,Wunderground v.1.15,2013-02-21 18:26:00,
2013-02-21 12:32:00,59.6,29.7,29.72,West,270,13.0,14.0,32,0.00,,,0.17,Wunderground v.1.15,2013-02-21 18:32:00,
2013-02-21 12:38:00,59.7,28.2,29.72,WSW,252,14.0,18.0,30,0.00,,,0.17,Wunderground v.1.15,2013-02-21 18:38:00,
2013-02-21 12:44:00,60.1,28.5,29.71,WSW,249,15.0,16.0,30,0.00,,,0.17,Wunderground v.1.15,2013-02-21 18:44:00,
2013-02-21 12:50:00,60.6,28.1,29.71,WSW,245,15.0,15.0,29,0.00,,,0.17,Wunderground v.1.15,2013-02-21 18:50:00,
2013-02-21 12:56:00,60.8,27.5,29.71,WNW,287,14.0,19.0,28,0.00,,,0.17,Wunderground v.1.15,2013-02-21 18:56:00,
2013-02-21 13:02:00,61.2,24.1,29.70,West,271,13.0,25.0,24,0.00,,,0.17,Wunderground v.1.15,2013-02-21 19:02:00,
2013-02-21 13:08:00,61.0,23.9,29.70,SW,231,14.0,25.0,24,0.00,,,0.17,Wunderground v.1.15,2013-02-21 19:08:00,
2013-02-21 13:14:00,60.9,22.8,29.70,West,262,14.0,25.0,23,0.00,,,0.17,Wunderground v.1.15,2013-02-21 19:14:00,
2013-02-21 13:20:00,61.2,24.1,29.70,WSW,240,13.0,13.0,24,0.00,,,0.17,Wunderground v.1.15,2013-02-21 19:20:00,
2013-02-21 13:26:00,61.7,23.5,29.69,WNW,285,12.0,25.0,23,0.00,,,0.17,Wunderground v.1.15,2013-02-21 19:26:00,
2013-02-21 13:32:00,61.8,23.6,29.69,NW,319,14.0,25.0,23,0.00,,,0.17,Wunderground v.1.15,2013-02-21 19:32:00,
2013-02-21 13:38:00,62.4,21.9,29.69,West,269,14.0,25.0,21,0.00,,,0.17,Wunderground v.1.15,2013-02-21 19:38:00,
2013-02-21 13:44:00,62.6,20.9,29.69,WNW,284,13.0,25.0,20,0.00,,,0.17,Wunderground v.1.15,2013-02-21 19:44:00,
2013-02-21 13:50:00,62.4,20.8,29.68,West,280,15.0,15.0,20,0.00,,,0.17,Wunderground v.1.15,2013-02-21 19:50:00,
2013-02-21 13:56:00,62.6,22.1,29.68,WNW,289,16.0,25.0,21,0.00,,,0.17,Wunderground v.1.15,2013-02-21 19:56:00,
2013-02-21 14:02:00,62.8,23.3,29.68,West,272,16.0,25.0,22,0.00,,,0.17,Wunderground v.1.15,2013-02-21 20:02:00,
2013-02-21 14:08:00,63.2,22.6,29.68,WSW,257,15.0,25.0,21,0.00,,,0.17,Wunderground v.1.15,2013-02-21 20:08:00,
2013-02-21 14:14:00,63.3,22.7,29.68,West,274,14.0,25.0,21,0.00,,,0.17,Wunderground v.1.15,2013-02-21 20:14:00,
2013-02-21 14:20:00,63.1,24.7,29.68,WNW,288,14.0,14.0,23,0.00,,,0.17,Wunderground v.1.15,2013-02-21 20:20:00,
2013-02-21 14:26:00,63.3,24.8,29.68,WSW,239,14.0,25.0,23,0.00,,,0.17,Wunderground v.1.15,2013-02-21 20:26:00,
2013-02-21 14:32:00,63.5,23.9,29.69,WNW,301,14.0,25.0,22,0.00,,,0.17,Wunderground v.1.15,2013-02-21 20:32:00,
2013-02-21 14:38:00,63.3,24.8,29.69,WSW,253,15.0,25.0,23,0.00,,,0.17,Wunderground v.1.15,2013-02-21 20:38:00,
2013-02-21 14:44:00,63.0,25.6,29.69,WNW,285,16.0,25.0,24,0.00,,,0.17,Wunderground v.1.15,2013-02-21 20:44:00,
2013-02-21 14:50:00,63.0,25.6,29.69,WNW,300,15.0,25.0,24,0.00,,,0.17,Wunderground v.1.15,2013-02-21 20:50:00,
2013-02-21 14:56:00,63.1,26.7,29.69,NW,309,16.0,25.0,25,0.00,,,0.17,Wunderground v.1.15,2013-02-21 20:56:00,
2013-02-21 15:02:00,63.2,26.8,29.70,WNW,284,15.0,22.0,25,0.00,,,0.17,Wunderground v.1.15,2013-02-21 21:02:00,
2013-02-21 15:08:00,63.3,27.8,29.70,WNW,285,15.0,25.0,26,0.00,,,0.17,Wunderground v.1.15,2013-02-21 21:08:00,
2013-02-21 15:14:00,63.2,27.7,29.70,West,266,15.0,25.0,26,0.00,,,0.17,Wunderground v.1.15,2013-02-21 21:14:00,
2013-02-21 15:20:00,63.3,27.8,29.70,West,269,15.0,15.0,26,0.00,,,0.17,Wunderground v.1.15,2013-02-21 21:20:00,
2013-02-21 15:26:00,63.6,27.1,29.70,WNW,297,13.0,25.0,25,0.00,,,0.17,Wunderground v.1.15,2013-02-21 21:26:00,
2013-02-21 15:32:00,63.3,27.8,29.70,West,262,14.0,25.0,26,0.00,,,0.17,Wunderground v.1.15,2013-02-21 21:32:00,
2013-02-21 15:38:00,63.5,28.0,29.71,West,278,14.0,25.0,26,0.00,,,0.17,Wunderground v.1.15,2013-02-21 21:38:00,
2013-02-21 15:44:00,63.7,28.1,29.71,WNW,297,13.0,25.0,26,0.00,,,0.17,Wunderground v.1.15,2013-02-21 21:44:00,
2013-02-21 15:50:00,64.1,28.5,29.71,WNW,288,11.0,25.0,26,0.00,,,0.17,Wunderground v.1.15,2013-02-21 21:50:00,
2013-02-21 15:56:00,64.0,27.4,29.72,WSW,249,11.0,25.0,25,0.00,,,0.17,Wunderground v.1.15,2013-02-21 21:56:00,
2013-02-21 16:02:00,63.7,28.1,29.72,WNW,283,11.0,25.0,26,0.00,,,0.17,Wunderground v.1.15,2013-02-21 22:02:00,
2013-02-21 16:08:00,63.8,28.2,29.72,NW,308,11.0,25.0,26,0.00,,,0.17,Wunderground v.1.15,2013-02-21 22:08:00,
2013-02-21 16:14:00,64.1,28.5,29.73,WSW,248,11.0,25.0,26,0.00,,,0.17,Wunderground v.1.15,2013-02-21 22:14:00,
2013-02-21 16:20:00,64.0,27.4,29.73,WNW,288,10.0,25.0,25,0.00,,,0.17,Wunderground v.1.15,2013-02-21 22:20:00,
2013-02-21 16:26:00,64.0,28.4,29.73,WNW,287,12.0,25.0,26,0.00,,,0.17,Wunderground v.1.15,2013-02-21 22:26:00,
2013-02-21 16:32:00,63.7,29.1,29.73,WNW,285,12.0,25.0,27,0.00,,,0.17,Wunderground v.1.15,2013-02-21 22:32:00,
2013-02-21 16:38:00,63.7,29.1,29.73,WNW,293,12.0,25.0,27,0.00,,,0.17,Wunderground v.1.15,2013-02-21 22:38:00,
2013-02-21 16:44:00,63.7,30.0,29.73,NW,310,12.0,25.0,28,0.00,,,0.17,Wunderground v.1.15,2013-02-21 22:44:00,
2013-02-21 16:50:00,63.7,29.1,29.73,WNW,288,11.0,25.0,27,0.00,,,0.17,Wunderground v.1.15,2013-02-21 22:50:00,
2013-02-21 16:56:00,63.5,28.9,29.73,West,278,10.0,25.0,27,0.00,,,0.17,Wunderground v.1.15,2013-02-21 22:56:00,
2013-02-21 17:02:00,63.5,28.9,29.73,WNW,295,10.0,25.0,27,0.00,,,0.17,Wunderground v.1.15,2013-02-21 23:02:00,
2013-02-21 17:08:00,63.3,28.7,29.73,West,263,11.0,25.0,27,0.00,,,0.17,Wunderground v.1.15,2013-02-21 23:08:00,
2013-02-21 17:14:00,63.0,29.4,29.73,WNW,287,10.0,25.0,28,0.00,,,0.17,Wunderground v.1.15,2013-02-21 23:14:00,
2013-02-21 17:20:00,63.0,28.5,29.74,NW,305,11.0,11.0,27,0.00,,,0.17,Wunderground v.1.15,2013-02-21 23:20:00,
2013-02-21 17:26:00,63.0,29.4,29.75,West,267,10.0,25.0,28,0.00,,,0.17,Wunderground v.1.15,2013-02-21 23:26:00,
2013-02-21 17:32:00,62.9,30.1,29.75,NW,312,8.0,25.0,29,0.00,,,0.17,Wunderground v.1.15,2013-02-21 23:32:00,
2013-02-21 17:38:00,62.6,29.9,29.75,NNE,20,8.0,25.0,29,0.00,,,0.17,Wunderground v.1.15,2013-02-21 23:38:00,
2013-02-21 17:44:00,62.3,30.4,29.75,NW,312,9.0,11.0,30,0.00,,,0.17,Wunderground v.1.15,2013-02-21 23:44:00,
2013-02-21 17:50:00,62.1,30.3,29.76,NW,311,9.0,9.0,30,0.00,,,0.17,Wunderground v.1.15,2013-02-21 23:50:00,
2013-02-21 17:56:00,62.0,31.0,29.76,NW,311,9.0,25.0,31,0.00,,,0.17,Wunderground v.1.15,2013-02-21 23:56:00,
2013-02-21 18:02:00,61.7,30.7,29.76,WNW,298,7.0,8.0,31,0.00,,,0.17,Wunderground v.1.15,2013-02-22 00:02:00,
2013-02-21 18:08:00,61.4,31.3,29.76,WNW,294,6.0,8.0,32,0.00,,,0.17,Wunderground v.1.15,2013-02-22 00:08:00,
2013-02-21 18:14:00,61.0,31.7,29.77,WNW,292,6.0,6.0,33,0.00,,,0.17,Wunderground v.1.15,2013-02-22 00:14:00,
2013-02-21 18:20:00,60.5,31.2,29.77,WNW,300,6.0,6.0,33,0.00,,,0.17,Wunderground v.1.15,2013-02-22 00:20:00,
2013-02-21 18:26:00,60.0,31.5,29.78,WNW,300,5.0,6.0,34,0.00,,,0.17,Wunderground v.1.15,2013-02-22 00:26:00,
2013-02-21 18:32:00,59.5,31.8,29.78,West,276,4.0,4.0,35,0.00,,,0.17,Wunderground v.1.15,2013-02-22 00:32:00,
2013-02-21 18:38:00,59.0,31.4,29.78,West,267,3.0,4.0,35,0.00,,,0.17,Wunderground v.1.15,2013-02-22 00:38:00,
2013-02-21 18:44:00,58.2,31.3,29.79,West,267,1.0,2.0,36,0.00,,,0.17,Wunderground v.1.15,2013-02-22 00:44:00,
2013-02-21 18:50:00,57.6,31.5,29.79,WSW,252,1.0,1.0,37,0.00,,,0.17,Wunderground v.1.15,2013-02-22 00:50:00,
2013-02-21 18:56:00,56.9,31.5,29.79,WSW,255,1.0,1.0,38,0.00,,,0.17,Wunderground v.1.15,2013-02-22 00:56:00,
2013-02-21 19:02:00,56.4,31.7,29.80,WSW,242,0.0,17.0,39,0.00,,,0.17,Wunderground v.1.15,2013-02-22 01:02:00,
2013-02-21 19:08:00,55.7,31.7,29.80,WSW,242,0.0,17.0,40,0.00,,,0.17,Wunderground v.1.15,2013-02-22 01:08:00,
2013-02-21 19:14:00,55.0,31.1,29.80,WSW,252,0.0,17.0,40,0.00,,,0.17,Wunderground v.1.15,2013-02-22 01:14:00,
2013-02-21 19:20:00,54.5,31.3,29.80,WSW,253,0.0,17.0,41,0.00,,,0.17,Wunderground v.1.15,2013-02-22 01:20:00,
2013-02-21 19:26:00,53.9,31.3,29.80,WSW,253,0.0,17.0,42,0.00,,,0.17,Wunderground v.1.15,2013-02-22 01:26:00,
2013-02-21 19:32:00,53.2,31.3,29.81,WSW,253,0.0,17.0,43,0.00,,,0.17,Wunderground v.1.15,2013-02-22 01:32:00,
2013-02-21 19:38:00,52.2,32.6,29.81,NNW,343,0.0,17.0,47,0.00,,,0.17,Wunderground v.1.15,2013-02-22 01:38:00,
2013-02-21 19:44:00,53.2,35.0,29.83,NNW,341,4.0,17.0,50,0.00,,,0.17,Wunderground v.1.15,2013-02-22 01:44:00,
2013-02-21 19:50:00,53.4,35.7,29.83,NW,314,4.0,4.0,51,0.00,,,0.17,Wunderground v.1.15,2013-02-22 01:50:00,
2013-02-21 19:56:00,53.5,36.3,29.83,NNW,342,4.0,17.0,52,0.00,,,0.17,Wunderground v.1.15,2013-02-22 01:56:00,
2013-02-21 20:02:00,53.6,37.3,29.84,NW,322,5.0,17.0,54,0.00,,,0.17,Wunderground v.1.15,2013-02-22 02:02:00,
2013-02-21 20:08:00,53.6,37.3,29.84,NNE,15,6.0,17.0,54,0.00,,,0.17,Wunderground v.1.15,2013-02-22 02:08:00,
2013-02-21 20:14:00,53.2,37.4,29.84,NNW,335,6.0,17.0,55,0.00,,,0.17,Wunderground v.1.15,2013-02-22 02:14:00,
2013-02-21 20:20:00,52.7,37.4,29.85,NNW,346,5.0,5.0,56,0.00,,,0.17,Wunderground v.1.15,2013-02-22 02:20:00,
2013-02-21 20:26:00,52.4,37.6,29.85,NNW,333,4.0,17.0,57,0.00,,,0.17,Wunderground v.1.15,2013-02-22 02:26:00,
2013-02-21 20:32:00,52.2,38.3,29.86,NNW,346,5.0,6.0,59,0.00,,,0.17,Wunderground v.1.15,2013-02-22 02:32:00,
2013-02-21 20:38:00,51.9,38.4,29.86,North,10,6.0,17.0,60,0.00,,,0.17,Wunderground v.1.15,2013-02-22 02:38:00,
2013-02-21 20:44:00,51.5,38.9,29.86,NNW,347,7.0,17.0,62,0.00,,,0.17,Wunderground v.1.15,2013-02-22 02:44:00,
2013-02-21 20:50:00,51.1,38.9,29.87,NNW,342,5.0,17.0,63,0.00,,,0.17,Wunderground v.1.15,2013-02-22 02:50:00,
2013-02-21 20:56:00,50.6,38.9,29.86,NW,321,5.0,17.0,64,0.00,,,0.17,Wunderground v.1.15,2013-02-22 02:56:00,
2013-02-21 21:02:00,50.2,38.9,29.87,NW,322,6.0,17.0,65,0.00,,,0.17,Wunderground v.1.15,2013-02-22 03:02:00,
2013-02-21 21:08:00,50.0,39.5,29.87,North,355,6.0,17.0,67,0.00,,,0.17,Wunderground v.1.15,2013-02-22 03:08:00,
2013-02-21 21:14:00,49.8,40.0,29.88,NE,37,6.0,17.0,69,0.00,,,0.17,Wunderground v.1.15,2013-02-22 03:14:00,
2013-02-21 21:20:00,49.3,39.9,29.89,ENE,63,6.0,17.0,70,0.00,,,0.17,Wunderground v.1.15,2013-02-22 03:20:00,
2013-02-21 21:26:00,48.9,39.9,29.89,ENE,60,5.0,17.0,71,0.00,,,0.17,Wunderground v.1.15,2013-02-22 03:26:00,
2013-02-21 21:32:00,48.7,40.1,29.89,NE,54,4.0,17.0,72,0.00,,,0.17,Wunderground v.1.15,2013-02-22 03:32:00,
2013-02-21 21:38:00,48.3,40.4,29.89,NE,41,5.0,17.0,74,0.00,,,0.17,Wunderground v.1.15,2013-02-22 03:38:00,
2013-02-21 21:44:00,47.9,40.4,29.89,NNE,13,5.0,17.0,75,0.00,,,0.17,Wunderground v.1.15,2013-02-22 03:44:00,
2013-02-21 21:50:00,47.5,40.3,29.89,NNE,30,5.0,5.0,76,0.00,,,0.17,Wunderground v.1.15,2013-02-22 03:50:00,
2013-02-21 21:56:00,47.1,40.3,29.90,NNE,26,5.0,17.0,77,0.00,,,0.17,Wunderground v.1.15,2013-02-22 03:56:00,
2013-02-21 22:02:00,46.7,40.2,29.90,NNE,12,4.0,17.0,78,0.00,,,0.17,Wunderground v.1.15,2013-02-22 04:02:00,
2013-02-21 22:08:00,46.1,39.9,29.90,NE,47,4.0,17.0,79,0.00,,,0.17,Wunderground v.1.15,2013-02-22 04:08:00,
2013-02-21 22:14:00,45.8,40.0,29.91,NNE,32,5.0,17.0,80,0.00,,,0.17,Wunderground v.1.15,2013-02-22 04:14:00,
2013-02-21 22:20:00,45.5,39.7,29.92,ENE,60,6.0,17.0,80,0.00,,,0.17,Wunderground v.1.15,2013-02-22 04:20:00,
2013-02-21 22:26:00,45.1,39.6,29.92,NNE,26,6.0,17.0,81,0.00,,,0.17,Wunderground v.1.15,2013-02-22 04:26:00,
2013-02-21 22:32:00,44.6,38.5,29.92,NNE,23,6.0,17.0,79,0.00,,,0.17,Wunderground v.1.15,2013-02-22 04:32:00,
2013-02-21 22:38:00,44.2,38.1,29.92,NNE,33,7.0,17.0,79,0.00,,,0.17,Wunderground v.1.15,2013-02-22 04:38:00,
2013-02-21 22:44:00,43.8,37.7,29.92,NNE,29,6.0,17.0,79,0.00,,,0.17,Wunderground v.1.15,2013-02-22 04:44:00,
2013-02-21 22:50:00,43.3,37.9,29.92,ENE,62,5.0,17.0,81,0.00,,,0.17,Wunderground v.1.15,2013-02-22 04:50:00,
2013-02-21 22:56:00,43.0,36.9,29.91,ENE,71,7.0,17.0,79,0.00,,,0.17,Wunderground v.1.15,2013-02-22 04:56:00,
2013-02-21 23:00:00,42.8,36.7,29.91,NNE,12,8.0,17.0,79,0.00,,,0.17,Wunderground v.1.15,2013-02-22 05:00:00,
2013-02-21 23:02:00,42.7,36.6,29.91,NNE,19,8.0,17.0,79,0.00,,,0.17,Wunderground v.1.15,2013-02-22 05:02:00,
2013-02-21 23:04:00,42.5,36.8,29.91,NE,34,8.0,17.0,80,0.00,,,0.17,Wunderground v.1.15,2013-02-22 05:04:00,
2013-02-21 23:10:00,42.2,36.8,29.91,North,8,8.0,8.0,81,0.00,,,0.17,Wunderground v.1.15,2013-02-22 05:10:00,
2013-02-21 23:16:00,41.9,36.8,29.90,ENE,60,8.0,17.0,82,0.00,,,0.17,Wunderground v.1.15,2013-02-22 05:16:00,
2013-02-21 23:20:00,41.5,36.7,29.90,NE,43,7.0,17.0,83,0.00,,,0.17,Wunderground v.1.15,2013-02-22 05:20:00,
2013-02-21 23:26:00,41.1,36.3,29.90,NNE,32,6.0,17.0,83,0.00,,,0.17,Wunderground v.1.15,2013-02-22 05:26:00,
2013-02-21 23:32:00,41.0,36.5,29.91,ENE,65,5.0,17.0,84,0.00,,,0.17,Wunderground v.1.15,2013-02-22 05:32:00,
2013-02-21 23:38:00,40.8,36.0,29.90,NNE,32,5.0,17.0,83,0.00,,,0.17,Wunderground v.1.15,2013-02-22 05:38:00,
2013-02-21 23:44:00,40.6,36.1,29.91,NE,40,6.0,17.0,84,0.00,,,0.17,Wunderground v.1.15,2013-02-22 05:44:00,
2013-02-21 23:50:00,40.3,35.8,29.91,NE,42,7.0,7.0,84,0.00,,,0.17,Wunderground v.1.15,2013-02-22 05:50:00,
2013-02-21 23:56:00,40.0,35.6,29.90,NE,37,7.0,17.0,84,0.00,,,0.17,Wunderground v.1.15,2013-02-22 05:56:00,